Time;durP1;ratioP1;P1;durP2;ratioP2;P2;SDS_P1;SDS_P2;PMS_P1;PMS_P2;Temp;Humidity;BMP_temperature;BMP_pressure;BME280_temperature;BME280_humidity;BME280_pressure;Samples;Min_cycle;Max_cycle;Signal;HPM_P1;HPM_P2
2023/12/01 00:00:31;;;;;;;24.67;5.68;;;17.50;95.10;;;;;;5054743;28;20024;-86
2023/12/01 00:02:58;;;;;;;18.13;5.50;;;17.50;95.00;;;;;;5073423;28;20028;-86
2023/12/01 00:05:23;;;;;;;19.33;4.90;;;17.50;95.00;;;;;;5075373;28;20482;-86
2023/12/01 00:07:49;;;;;;;24.73;5.60;;;17.50;95.00;;;;;;5075390;28;20051;-87
2023/12/01 00:10:15;;;;;;;20.95;5.35;;;17.50;95.20;;;;;;5073221;28;20028;-87
2023/12/01 00:12:41;;;;;;;19.63;5.47;;;17.40;94.90;;;;;;5059172;28;20110;-87
2023/12/01 00:15:07;;;;;;;21.27;4.88;;;17.40;94.90;;;;;;5070471;28;20049;-86
2023/12/01 00:17:33;;;;;;;21.42;5.40;;;17.40;94.90;;;;;;5056891;28;20021;-86
2023/12/01 00:19:59;;;;;;;25.05;5.78;;;17.40;94.90;;;;;;5056433;28;20025;-86
2023/12/01 00:22:25;;;;;;;23.80;4.85;;;17.40;94.90;;;;;;5056897;28;20028;-87
2023/12/01 00:24:51;;;;;;;18.73;4.88;;;17.40;94.90;;;;;;5056855;28;20036;-87
2023/12/01 00:27:17;;;;;;;17.98;4.82;;;17.40;95.10;;;;;;5056737;28;20040;-87
2023/12/01 00:29:43;;;;;;;16.10;4.68;;;17.40;94.80;;;;;;5056396;28;20049;-86
2023/12/01 00:32:08;;;;;;;21.55;5.20;;;17.40;94.80;;;;;;5038292;28;20024;-86
2023/12/01 00:34:34;;;;;;;30.52;5.72;;;17.40;94.70;;;;;;5056299;28;20021;-86
2023/12/01 00:37:00;;;;;;;24.88;5.13;;;17.40;94.80;;;;;;5056159;28;20529;-84
2023/12/01 00:39:26;;;;;;;21.63;5.57;;;17.40;94.70;;;;;;5056541;28;20025;-86
2023/12/01 00:41:52;;;;;;;19.02;5.35;;;17.40;94.70;;;;;;5056289;28;20374;-86
2023/12/01 00:44:18;;;;;;;20.92;5.53;;;17.40;94.70;;;;;;5056126;28;20021;-85
2023/12/01 00:46:43;;;;;;;22.05;5.43;;;17.40;94.70;;;;;;5056104;28;20090;-87
2023/12/01 00:49:11;;;;;;;19.58;4.95;;;17.40;94.70;;;;;;5055795;28;20048;-86
2023/12/01 00:51:39;;;;;;;20.98;5.13;;;17.40;94.60;;;;;;5038266;28;20017;-85
2023/12/01 00:54:05;;;;;;;19.55;4.60;;;17.40;94.70;;;;;;5055701;28;20477;-86
2023/12/01 00:56:30;;;;;;;21.67;5.22;;;17.40;94.60;;;;;;5056263;28;20021;-87
2023/12/01 00:58:56;;;;;;;22.58;5.30;;;17.40;94.50;;;;;;5055938;28;20050;-85
2023/12/01 01:01:22;;;;;;;20.17;4.72;;;17.40;94.50;;;;;;5056426;28;20025;-85
2023/12/01 01:03:48;;;;;;;18.35;5.07;;;17.40;94.50;;;;;;5056473;28;20017;-85
2023/12/01 01:06:13;;;;;;;22.90;4.85;;;17.40;94.40;;;;;;5055482;28;20025;-86
2023/12/01 01:08:39;;;;;;;19.63;4.50;;;17.40;94.50;;;;;;5055252;28;20074;-85
2023/12/01 01:11:05;;;;;;;17.88;4.68;;;17.40;94.30;;;;;;5055456;28;20390;-85
2023/12/01 01:13:32;;;;;;;19.90;5.28;;;17.40;94.40;;;;;;5055376;28;20072;-85
2023/12/01 01:15:58;;;;;;;18.73;4.47;;;17.40;94.40;;;;;;5055221;28;20017;-86
2023/12/01 01:18:23;;;;;;;18.63;4.43;;;17.40;94.30;;;;;;5055623;28;20021;-87
2023/12/01 01:20:49;;;;;;;17.83;4.15;;;17.40;94.30;;;;;;5046251;28;20507;-85
2023/12/01 01:23:15;;;;;;;19.73;4.68;;;17.40;94.40;;;;;;5068109;28;20021;-87
2023/12/01 01:25:41;;;;;;;18.58;5.18;;;17.40;94.30;;;;;;5055025;28;20103;-85
2023/12/01 01:28:08;;;;;;;16.10;4.15;;;17.40;94.40;;;;;;5060697;28;20136;-84
2023/12/01 01:30:33;;;;;;;21.10;4.68;;;17.40;94.40;;;;;;5074230;28;20088;-86
2023/12/01 01:32:59;;;;;;;25.63;5.10;;;17.40;94.40;;;;;;5057121;28;20040;-87
2023/12/01 01:35:25;;;;;;;21.33;4.85;;;17.40;94.30;;;;;;5075134;28;20528;-86
2023/12/01 01:37:51;;;;;;;16.60;4.35;;;17.40;94.30;;;;;;5075853;28;20166;-86
2023/12/01 01:40:17;;;;;;;22.42;5.97;;;17.50;94.40;;;;;;5066290;28;20049;-86
2023/12/01 01:42:43;;;;;;;18.63;4.72;;;17.50;94.40;;;;;;5055337;28;20098;-86
2023/12/01 01:45:09;;;;;;;27.77;5.20;;;17.50;94.30;;;;;;5055074;28;20009;-86
2023/12/01 01:47:35;;;;;;;21.05;4.32;;;17.50;94.30;;;;;;5055369;28;20490;-86
2023/12/01 01:50:03;;;;;;;18.48;4.22;;;17.50;94.30;;;;;;5055200;28;20091;-86
2023/12/01 01:52:29;;;;;;;22.65;4.55;;;17.50;94.20;;;;;;5038735;28;20033;-87
2023/12/01 01:54:56;;;;;;;20.73;4.93;;;17.50;94.30;;;;;;5075159;28;20013;-86
2023/12/01 01:57:22;;;;;;;18.75;4.68;;;17.50;94.20;;;;;;5075365;28;20547;-85
2023/12/01 01:59:48;;;;;;;25.95;5.60;;;17.50;94.20;;;;;;5075464;28;20020;-85
2023/12/01 02:02:14;;;;;;;21.52;4.75;;;17.50;94.30;;;;;;5056404;28;20033;-85
2023/12/01 02:04:40;;;;;;;20.13;4.50;;;17.50;94.20;;;;;;5037167;28;20017;-86
2023/12/01 02:07:08;;;;;;;26.42;4.85;;;17.50;94.20;;;;;;5057801;28;20410;-84
2023/12/01 02:09:34;;;;;;;21.95;4.00;;;17.50;94.20;;;;;;5060695;28;20025;-86
2023/12/01 02:12:00;;;;;;;26.42;5.03;;;17.50;94.10;;;;;;5042213;28;20033;-86
2023/12/01 02:14:26;;;;;;;16.45;4.57;;;17.50;94.00;;;;;;5037353;28;20033;-86
2023/12/01 02:16:51;;;;;;;18.50;4.38;;;17.50;94.00;;;;;;5055312;28;20028;-86
2023/12/01 02:19:18;;;;;;;20.65;4.93;;;17.50;94.00;;;;;;5054624;28;20474;-86
2023/12/01 02:21:47;;;;;;;21.23;4.63;;;17.50;93.90;;;;;;5054315;28;20501;-84
2023/12/01 02:24:13;;;;;;;24.98;4.43;;;17.60;94.00;;;;;;5054958;28;20021;-84
2023/12/01 02:26:39;;;;;;;16.30;4.85;;;17.50;93.90;;;;;;5035930;28;20502;-83
2023/12/01 02:29:06;;;;;;;19.08;4.75;;;17.50;93.90;;;;;;5054000;28;20029;-86
2023/12/01 02:31:32;;;;;;;25.10;5.43;;;17.50;93.90;;;;;;5054113;28;20079;-85
2023/12/01 02:33:58;;;;;;;23.38;4.80;;;17.50;93.90;;;;;;5060957;28;20056;-84
2023/12/01 02:36:24;;;;;;;20.08;5.10;;;17.50;94.00;;;;;;5074238;28;20547;-85
2023/12/01 02:38:50;;;;;;;17.65;4.40;;;17.50;93.90;;;;;;5073238;28;20032;-85
2023/12/01 02:41:17;;;;;;;17.15;4.40;;;17.50;93.90;;;;;;5074422;28;20029;-84
2023/12/01 02:43:44;;;;;;;21.83;5.88;;;17.50;93.80;;;;;;5074825;28;20113;-84
2023/12/01 02:46:12;;;;;;;25.55;4.88;;;17.50;93.80;;;;;;5056322;28;20021;-85
2023/12/01 02:48:39;;;;;;;22.17;4.72;;;17.50;93.70;;;;;;5074078;28;20036;-85
2023/12/01 02:51:05;;;;;;;26.30;5.22;;;17.50;93.70;;;;;;5073749;28;20103;-85
2023/12/01 02:53:31;;;;;;;21.05;4.43;;;17.60;93.60;;;;;;5073898;28;20097;-84
2023/12/01 02:55:57;;;;;;;23.00;4.65;;;17.60;93.60;;;;;;5073553;28;20044;-85
2023/12/01 02:58:24;;;;;;;21.05;5.22;;;17.60;93.60;;;;;;5073905;28;20021;-85
2023/12/01 03:00:50;;;;;;;21.40;4.55;;;17.50;93.50;;;;;;5055885;28;20037;-86
2023/12/01 03:03:15;;;;;;;21.70;5.45;;;17.50;93.60;;;;;;5073643;28;20024;-85
2023/12/01 03:05:41;;;;;;;21.02;5.00;;;17.50;93.50;;;;;;5073735;28;20060;-85
2023/12/01 03:08:07;;;;;;;19.25;4.97;;;17.50;93.40;;;;;;5055572;28;20486;-84
2023/12/01 03:10:34;;;;;;;17.42;4.63;;;17.50;93.50;;;;;;5074232;28;20025;-85
2023/12/01 03:13:00;;;;;;;24.02;5.70;;;17.50;93.40;;;;;;5095356;28;20028;-84
2023/12/01 03:15:25;;;;;;;22.40;5.57;;;17.50;93.50;;;;;;5081871;28;20494;-86
2023/12/01 03:17:51;;;;;;;21.23;4.55;;;17.50;93.50;;;;;;5074110;28;20020;-85
2023/12/01 03:20:17;;;;;;;23.02;5.05;;;17.50;93.50;;;;;;5073692;28;20386;-85
2023/12/01 03:22:45;;;;;;;24.83;5.35;;;17.50;93.50;;;;;;5074791;28;20490;-84
2023/12/01 03:25:11;;;;;;;23.83;5.38;;;17.50;93.50;;;;;;5073980;28;20024;-85
2023/12/01 03:27:42;;;;;;;24.52;5.03;;;17.50;93.40;;;;;;5073717;28;20032;-85
2023/12/01 03:30:15;;;;;;;23.40;5.40;;;17.50;93.60;;;;;;5074430;28;20020;-84
2023/12/01 03:32:48;;;;;;;;;;;17.50;93.50;;;;;;5076153;28;20031;-85
2023/12/01 03:35:16;;;;;;;32.58;5.93;;;17.50;93.50;;;;;;5077904;28;20361;-85
2023/12/01 03:37:43;;;;;;;25.88;5.30;;;17.50;93.70;;;;;;5041839;28;20449;-84
2023/12/01 03:40:13;;;;;;;23.23;4.80;;;17.50;93.80;;;;;;5074164;28;20028;-84
2023/12/01 03:42:46;;;;;;;24.80;5.57;;;17.50;93.80;;;;;;5073466;28;20017;-86
2023/12/01 03:45:12;;;;;;;20.17;5.00;;;17.50;93.90;;;;;;5073485;28;20089;-85
2023/12/01 03:47:39;;;;;;;23.02;5.93;;;17.50;93.90;;;;;;5073898;28;20127;-85
2023/12/01 03:50:06;;;;;;;23.33;5.88;;;17.40;94.00;;;;;;5075643;28;20089;-85
2023/12/01 03:52:31;;;;;;;23.33;6.03;;;17.40;94.00;;;;;;5077245;28;20033;-86
2023/12/01 03:54:59;;;;;;;22.92;4.97;;;17.40;94.10;;;;;;5077721;28;20025;-85
2023/12/01 03:57:28;;;;;;;24.20;5.65;;;17.40;94.10;;;;;;5093743;28;20074;-85
2023/12/01 03:59:54;;;;;;;20.70;5.50;;;17.40;94.10;;;;;;5074170;28;20421;-84
2023/12/01 04:02:21;;;;;;;24.85;4.97;;;17.40;94.10;;;;;;5072732;28;20024;-84
2023/12/01 04:04:50;;;;;;;19.15;5.45;;;17.40;94.10;;;;;;5073018;28;20024;-83
2023/12/01 04:07:16;;;;;;;24.85;5.55;;;17.40;94.10;;;;;;5072846;28;20054;-85
2023/12/01 04:09:42;;;;;;;26.13;5.38;;;17.40;94.20;;;;;;5072370;28;20393;-87
2023/12/01 04:12:08;;;;;;;25.45;5.75;;;17.40;94.20;;;;;;5072412;28;20041;-85
2023/12/01 04:14:33;;;;;;;22.02;4.97;;;17.40;94.30;;;;;;5073143;28;20526;-86
2023/12/01 04:17:08;;;;;;;21.73;5.28;;;17.40;94.20;;;;;;5072137;28;20504;-86
2023/12/01 04:19:38;;;;;;;26.73;6.15;;;17.40;94.20;;;;;;5072228;28;20049;-85
2023/12/01 04:22:07;;;;;;;23.20;5.25;;;17.40;94.20;;;;;;5072453;28;20086;-85
2023/12/01 04:24:34;;;;;;;27.67;5.15;;;17.40;94.10;;;;;;5072014;28;20078;-85
2023/12/01 04:27:01;;;;;;;17.77;5.25;;;17.50;94.10;;;;;;5071782;28;20026;-85
2023/12/01 04:29:29;;;;;;;28.52;6.40;;;17.40;94.00;;;;;;5071940;28;20070;-85
2023/12/01 04:31:55;;;;;;;24.38;5.05;;;17.50;94.00;;;;;;5071847;28;20040;-82
2023/12/01 04:34:21;;;;;;;20.52;5.20;;;17.50;93.90;;;;;;5072761;28;20074;-85
2023/12/01 04:36:48;;;;;;;17.42;4.97;;;17.50;93.90;;;;;;5074283;28;20016;-85
2023/12/01 04:39:14;;;;;;;18.10;4.78;;;17.50;93.90;;;;;;5072028;28;20025;-86
2023/12/01 04:41:40;;;;;;;18.63;5.63;;;17.50;93.90;;;;;;5072988;28;20025;-84
2023/12/01 04:44:06;;;;;;;24.45;6.00;;;17.60;93.80;;;;;;5072472;28;20039;-84
2023/12/01 04:46:31;;;;;;;20.02;5.13;;;17.50;93.70;;;;;;5078757;28;20382;-84
2023/12/01 04:48:57;;;;;;;22.58;4.82;;;17.50;93.70;;;;;;5072279;28;20043;-85
2023/12/01 04:51:23;;;;;;;19.40;5.05;;;17.50;93.70;;;;;;5073306;28;20016;-84
2023/12/01 04:53:49;;;;;;;18.02;4.82;;;17.50;93.70;;;;;;5072176;28;20032;-85
2023/12/01 04:56:15;;;;;;;24.10;6.18;;;17.50;93.70;;;;;;5072714;28;20439;-84
2023/12/01 04:58:41;;;;;;;26.23;5.30;;;17.60;93.70;;;;;;5073990;28;20035;-84
2023/12/01 05:01:07;;;;;;;24.73;5.45;;;17.60;93.50;;;;;;5084593;28;20494;-84
2023/12/01 05:03:32;;;;;;;21.83;4.85;;;17.60;93.40;;;;;;5088971;28;20048;-84
2023/12/01 05:05:58;;;;;;;25.48;5.28;;;17.60;93.40;;;;;;5077678;28;20021;-85
2023/12/01 05:08:27;;;;;;;19.05;4.82;;;17.70;93.40;;;;;;5075703;28;20033;-84
2023/12/01 05:10:56;;;;;;;28.52;5.68;;;17.60;93.40;;;;;;5082307;28;20075;-84
2023/12/01 05:13:21;;;;;;;24.17;6.15;;;17.70;93.30;;;;;;5083028;28;20063;-84
2023/12/01 05:15:47;;;;;;;22.48;5.75;;;17.60;93.30;;;;;;5075653;28;20378;-84
2023/12/01 05:18:13;;;;;;;19.15;5.43;;;17.60;93.30;;;;;;5075706;28;20398;-84
2023/12/01 05:20:39;;;;;;;21.52;4.82;;;17.60;93.30;;;;;;5076355;28;20025;-85
2023/12/01 05:23:09;;;;;;;24.30;5.25;;;17.50;93.30;;;;;;5076807;28;20032;-85
2023/12/01 05:25:37;;;;;;;17.70;5.40;;;17.50;93.20;;;;;;5075517;28;20482;-81
2023/12/01 05:28:05;;;;;;;21.65;6.35;;;17.60;93.10;;;;;;5075480;28;20120;-84
2023/12/01 05:30:33;;;;;;;21.38;5.00;;;17.60;93.00;;;;;;5075460;28;20028;-84
2023/12/01 05:32:59;;;;;;;24.10;6.00;;;17.60;92.90;;;;;;5075433;28;20043;-86
2023/12/01 05:35:26;;;;;;;19.30;5.20;;;17.60;92.70;;;;;;5075600;28;20032;-86
2023/12/01 05:37:54;;;;;;;21.88;5.38;;;17.60;92.60;;;;;;5075140;28;20032;-85
2023/12/01 05:40:29;;;;;;;24.40;5.95;;;17.60;92.60;;;;;;5057412;28;20021;-85
2023/12/01 05:42:56;;;;;;;26.23;5.20;;;17.60;92.40;;;;;;5075051;28;20033;-84
2023/12/01 05:45:27;;;;;;;23.52;5.40;;;17.60;92.40;;;;;;5075091;28;20016;-85
2023/12/01 05:47:54;;;;;;;20.17;5.68;;;17.60;92.20;;;;;;5078072;28;20713;-85
2023/12/01 05:50:23;;;;;;;19.15;5.38;;;17.60;92.20;;;;;;5075536;28;20020;-84
2023/12/01 05:52:51;;;;;;;23.50;5.93;;;17.70;92.00;;;;;;5074898;28;20029;-84
2023/12/01 05:55:19;;;;;;;23.05;5.35;;;17.70;92.00;;;;;;5074343;28;20012;-84
2023/12/01 05:57:46;;;;;;;25.08;5.80;;;17.60;91.80;;;;;;5075185;28;20103;-84
2023/12/01 06:00:29;;;;;;;21.88;5.22;;;17.60;91.80;;;;;;5075246;28;20020;-86
2023/12/01 06:02:59;;;;;;;25.45;6.57;;;17.60;91.80;;;;;;5075546;28;20021;-84
2023/12/01 06:05:25;;;;;;;24.85;5.70;;;17.60;91.70;;;;;;5074335;28;20103;-85
2023/12/01 06:07:56;;;;;;;28.73;6.50;;;17.60;91.80;;;;;;5073978;28;20114;-86
2023/12/01 06:10:23;;;;;;;24.02;6.18;;;17.60;91.80;;;;;;5056724;28;20484;-86
2023/12/01 06:12:49;;;;;;;24.83;6.70;;;17.60;91.80;;;;;;5074018;28;20056;-86
2023/12/01 06:15:16;;;;;;;21.48;5.70;;;17.70;91.90;;;;;;5074664;28;20023;-85
2023/12/01 06:17:47;;;;;;;30.02;6.68;;;17.60;91.80;;;;;;5074987;28;20070;-86
2023/12/01 06:20:19;;;;;;;28.08;6.85;;;17.60;92.00;;;;;;5075716;28;20013;-84
2023/12/01 06:22:48;;;;;;;36.67;7.82;;;17.60;92.10;;;;;;5076408;28;20043;-85
2023/12/01 06:25:15;;;;;;;32.08;7.25;;;17.60;92.20;;;;;;5078982;28;20016;-85
2023/12/01 06:27:41;;;;;;;26.65;6.78;;;17.60;92.20;;;;;;5078326;28;20036;-85
2023/12/01 06:30:12;;;;;;;28.02;6.13;;;17.60;92.30;;;;;;5075626;28;20023;-84
2023/12/01 06:32:47;;;;;;;32.45;7.30;;;17.60;92.30;;;;;;5073313;28;20028;-81
2023/12/01 06:35:16;;;;;;;24.85;6.07;;;17.60;92.40;;;;;;5073199;28;20027;-79
2023/12/01 06:37:43;;;;;;;30.40;6.68;;;17.70;92.30;;;;;;5072997;28;20025;-79
2023/12/01 06:40:15;;;;;;;26.98;6.65;;;17.70;92.30;;;;;;5073864;28;20065;-76
2023/12/01 06:42:45;;;;;;;31.92;6.90;;;17.80;92.30;;;;;;5073367;28;20384;-80
2023/12/01 06:45:13;;;;;;;34.22;8.07;;;17.80;92.20;;;;;;5073770;28;20041;-81
2023/12/01 06:47:41;;;;;;;27.58;6.03;;;17.80;92.10;;;;;;5072576;28;20044;-80
2023/12/01 06:50:09;;;;;;;28.20;6.70;;;17.80;92.10;;;;;;5073078;28;20024;-80
2023/12/01 06:52:36;;;;;;;28.05;7.60;;;17.90;92.00;;;;;;5073295;28;20351;-79
2023/12/01 06:55:02;;;;;;;31.25;6.45;;;17.90;92.00;;;;;;5065963;28;20268;-82
2023/12/01 06:57:27;;;;;;;31.75;6.03;;;18.00;92.00;;;;;;5031725;28;20493;-81
2023/12/01 06:59:53;;;;;;;23.23;6.80;;;18.00;92.00;;;;;;5034859;28;20063;-81
2023/12/01 07:02:19;;;;;;;34.67;7.43;;;18.00;92.00;;;;;;5043931;28;20029;-80
2023/12/01 07:04:45;;;;;;;28.73;7.45;;;18.00;92.10;;;;;;5041871;28;20079;-79
2023/12/01 07:07:12;;;;;;;36.03;7.93;;;18.00;92.10;;;;;;5043020;28;20032;-79
2023/12/01 07:09:39;;;;;;;29.85;7.13;;;18.00;92.10;;;;;;5049637;28;20575;-80
2023/12/01 07:12:05;;;;;;;31.20;7.93;;;18.00;92.10;;;;;;5052361;28;20040;-80
2023/12/01 07:14:31;;;;;;;38.63;7.90;;;18.00;92.20;;;;;;5053111;28;20021;-80
2023/12/01 07:16:57;;;;;;;35.03;7.25;;;18.00;92.30;;;;;;5053132;28;20021;-80
2023/12/01 07:19:22;;;;;;;37.72;8.00;;;18.00;92.40;;;;;;5052860;28;20560;-80
2023/12/01 07:21:48;;;;;;;30.27;6.90;;;18.10;92.50;;;;;;5053064;28;20368;-80
2023/12/01 07:24:14;;;;;;;31.98;7.53;;;18.00;92.60;;;;;;5047694;28;20045;-80
2023/12/01 07:26:39;;;;;;;43.83;8.75;;;18.00;92.60;;;;;;5032958;28;20108;-81
2023/12/01 07:29:06;;;;;;;30.70;8.18;;;18.00;92.70;;;;;;5032645;28;20040;-80
2023/12/01 07:31:33;;;;;;;35.45;7.63;;;18.00;92.60;;;;;;5033207;28;20033;-80
2023/12/01 07:33:59;;;;;;;38.35;8.60;;;18.00;92.80;;;;;;5032971;28;20037;-81
2023/12/01 07:36:25;;;;;;;34.85;8.50;;;18.00;92.70;;;;;;5032389;28;20497;-81
2023/12/01 07:38:51;;;;;;;37.67;8.10;;;18.10;92.80;;;;;;5032506;28;20102;-82
2023/12/01 07:41:17;;;;;;;41.78;7.97;;;18.10;92.70;;;;;;5032459;28;20025;-80
2023/12/01 07:43:42;;;;;;;44.17;8.93;;;18.20;92.80;;;;;;5032609;28;20486;-82
2023/12/01 07:46:08;;;;;;;30.83;7.78;;;18.20;92.60;;;;;;5032584;28;20022;-81
2023/12/01 07:48:35;;;;;;;41.70;7.65;;;18.20;92.60;;;;;;5032647;28;20033;-81
2023/12/01 07:51:02;;;;;;;39.55;7.85;;;18.20;92.60;;;;;;5032882;28;20071;-82
2023/12/01 07:53:28;;;;;;;36.95;7.05;;;18.30;92.60;;;;;;5033039;28;20105;-79
2023/12/01 07:55:54;;;;;;;42.45;7.90;;;18.20;92.80;;;;;;5033151;28;20060;-78
2023/12/01 07:58:20;;;;;;;41.75;8.80;;;18.20;92.50;;;;;;5032689;28;20061;-80
2023/12/01 08:00:46;;;;;;;42.42;7.68;;;18.30;92.50;;;;;;5032871;28;20033;-81
2023/12/01 08:03:12;;;;;;;37.42;8.40;;;18.30;92.60;;;;;;5031171;28;20098;-80
2023/12/01 08:05:39;;;;;;;36.35;8.20;;;18.30;92.60;;;;;;5032503;28;20447;-81
2023/12/01 08:08:05;;;;;;;42.03;9.02;;;18.30;92.60;;;;;;5033300;28;20037;-80
2023/12/01 08:10:32;;;;;;;34.40;7.47;;;18.30;92.60;;;;;;5034422;28;20018;-79
2023/12/01 08:12:57;;;;;;;40.35;8.05;;;18.30;92.70;;;;;;5032683;28;20045;-83
2023/12/01 08:15:24;;;;;;;38.83;9.13;;;18.30;92.70;;;;;;5032462;28;20044;-81
2023/12/01 08:17:50;;;;;;;38.10;7.78;;;18.40;92.70;;;;;;5046895;28;20035;-78
2023/12/01 08:20:18;;;;;;;48.47;9.18;;;18.40;92.80;;;;;;5042005;28;20020;-80
2023/12/01 08:22:46;;;;;;;40.00;8.65;;;18.50;92.60;;;;;;5044073;28;20043;-81
2023/12/01 08:25:15;;;;;;;37.97;8.77;;;18.60;92.70;;;;;;5044025;28;20101;-80
2023/12/01 08:27:41;;;;;;;39.47;7.60;;;18.70;92.70;;;;;;5040970;28;20356;-81
2023/12/01 08:30:08;;;;;;;38.10;8.95;;;18.70;92.60;;;;;;5040509;28;20029;-81
2023/12/01 08:32:34;;;;;;;36.10;8.85;;;18.80;92.60;;;;;;5041672;28;20108;-80
2023/12/01 08:35:00;;;;;;;39.97;8.40;;;18.80;92.50;;;;;;5041899;28;20108;-80
2023/12/01 08:37:26;;;;;;;39.00;7.90;;;18.90;92.40;;;;;;5061144;28;20088;-81
2023/12/01 08:39:52;;;;;;;43.75;8.52;;;19.00;92.40;;;;;;5069368;28;20041;-79
2023/12/01 08:42:18;;;;;;;40.25;8.27;;;19.00;92.30;;;;;;5070553;28;20165;-80
2023/12/01 08:44:44;;;;;;;39.58;8.52;;;19.10;92.30;;;;;;5032204;28;20032;-79
2023/12/01 08:47:12;;;;;;;46.10;8.85;;;19.10;92.20;;;;;;5046768;28;20029;-81
2023/12/01 08:49:38;;;;;;;37.05;8.10;;;19.10;92.10;;;;;;5044621;28;20090;-80
2023/12/01 08:52:04;;;;;;;32.58;7.50;;;19.20;92.10;;;;;;5043778;28;20519;-81
2023/12/01 08:54:29;;;;;;;39.30;7.28;;;19.30;92.00;;;;;;5020707;28;20083;-80
2023/12/01 08:56:56;;;;;;;32.17;8.20;;;19.40;91.80;;;;;;5030572;28;20592;-80
2023/12/01 08:59:22;;;;;;;34.30;7.25;;;19.50;91.70;;;;;;4998449;28;20025;-81
2023/12/01 09:01:48;;;;;;;36.97;7.45;;;19.70;91.50;;;;;;4999393;28;20075;-81
2023/12/01 09:04:13;;;;;;;37.08;7.30;;;19.80;91.60;;;;;;5028755;28;20029;-81
2023/12/01 09:06:39;;;;;;;41.42;7.63;;;19.90;91.10;;;;;;5018669;28;20823;-79
2023/12/01 09:09:05;;;;;;;33.47;8.57;;;20.00;90.90;;;;;;5022092;28;20037;-80
2023/12/01 09:11:31;;;;;;;31.10;7.20;;;20.10;90.60;;;;;;5036436;28;20028;-79
2023/12/01 09:13:57;;;;;;;38.30;7.88;;;20.20;90.40;;;;;;5034933;28;20053;-76
2023/12/01 09:16:23;;;;;;;43.20;9.13;;;20.30;90.30;;;;;;5055628;28;20086;-80
2023/12/01 09:18:50;;;;;;;41.13;8.15;;;20.30;90.20;;;;;;5061067;28;20025;-80
2023/12/01 09:21:16;;;;;;;32.40;8.25;;;20.40;90.00;;;;;;5055285;28;20017;-83
2023/12/01 09:23:42;;;;;;;36.67;7.68;;;20.40;89.80;;;;;;5055287;28;20025;-82
2023/12/01 09:26:08;;;;;;;37.40;7.80;;;20.40;89.80;;;;;;5055777;28;20070;-83
2023/12/01 09:28:34;;;;;;;38.45;7.53;;;20.50;90.00;;;;;;5055445;28;20040;-81
2023/12/01 09:31:03;;;;;;;36.72;7.82;;;20.50;89.60;;;;;;5060260;28;20029;-82
2023/12/01 09:33:30;;;;;;;34.92;7.88;;;20.50;89.50;;;;;;5052695;28;20021;-81
2023/12/01 09:35:56;;;;;;;31.30;7.32;;;20.50;89.20;;;;;;5037066;28;20021;-79
2023/12/01 09:38:22;;;;;;;35.90;6.93;;;20.50;89.00;;;;;;5054759;28;20074;-79
2023/12/01 09:40:47;;;;;;;39.95;7.55;;;20.50;89.00;;;;;;5035267;28;20028;-80
2023/12/01 09:43:17;;;;;;;32.40;7.47;;;20.60;88.70;;;;;;5053394;28;20021;-80
2023/12/01 09:45:43;;;;;;;39.38;8.38;;;20.60;88.60;;;;;;5053435;28;20017;-79
2023/12/01 09:48:11;;;;;;;34.42;7.82;;;20.60;88.60;;;;;;5054187;28;20037;-78
2023/12/01 09:50:37;;;;;;;36.25;8.25;;;20.60;88.50;;;;;;5053310;28;20025;-80
2023/12/01 09:53:03;;;;;;;33.75;8.10;;;20.60;88.50;;;;;;5036540;28;20032;-79
2023/12/01 09:55:31;;;;;;;45.22;8.23;;;20.70;88.60;;;;;;5054656;28;20029;-80
2023/12/01 09:57:57;;;;;;;32.33;8.63;;;20.70;88.60;;;;;;5054489;28;20021;-79
2023/12/01 10:00:23;;;;;;;42.08;8.70;;;20.70;88.20;;;;;;5036533;28;20094;-79
2023/12/01 10:02:49;;;;;;;32.08;7.90;;;20.80;88.00;;;;;;5054333;28;20021;-79
2023/12/01 10:05:18;;;;;;;36.00;7.57;;;20.80;87.90;;;;;;5054036;28;20108;-78
2023/12/01 10:07:45;;;;;;;34.72;7.22;;;20.80;87.80;;;;;;5053985;28;20064;-80
2023/12/01 10:10:25;;;;;;;34.55;7.38;;;20.90;87.60;;;;;;5054096;28;20525;-80
2023/12/01 10:13:04;;;;;;;38.00;7.57;;;20.90;87.30;;;;;;5053464;28;20057;-78
2023/12/01 10:15:38;;;;;;;39.25;8.15;;;21.00;87.10;;;;;;5053898;28;20051;-79
2023/12/01 10:18:12;;;;;;;42.85;8.65;;;21.00;87.00;;;;;;5054074;28;20037;-79
2023/12/01 10:20:42;;;;;;;37.95;8.20;;;21.10;87.70;;;;;;5054016;28;20608;-80
2023/12/01 10:23:18;;;;;;;34.45;7.65;;;21.10;87.00;;;;;;5054127;28;20025;-79
2023/12/01 10:25:48;;;;;;;37.72;8.25;;;21.10;87.40;;;;;;5053884;28;20036;-80
2023/12/01 10:28:15;;;;;;;36.17;8.20;;;21.10;87.10;;;;;;5034216;28;20037;-84
2023/12/01 10:30:59;;;;;;;31.23;6.85;;;21.10;87.10;;;;;;5047484;28;20025;-72
2023/12/01 10:33:28;;;;;;;38.47;7.90;;;21.10;87.10;;;;;;5065629;28;20024;-83
2023/12/01 10:35:58;;;;;;;37.08;7.90;;;21.10;86.90;;;;;;5080562;28;20024;-80
2023/12/01 10:38:26;;;;;;;40.25;9.25;;;21.10;86.90;;;;;;5074541;28;20052;-76
2023/12/01 10:40:53;;;;;;;37.00;8.32;;;21.10;86.80;;;;;;5066221;28;20021;-82
2023/12/01 10:43:20;;;;;;;36.33;7.85;;;21.10;86.60;;;;;;5049026;28;20608;-77
2023/12/01 10:45:50;;;;;;;44.83;7.80;;;21.10;86.60;;;;;;5057732;28;20040;-79
2023/12/01 10:48:21;;;;;;;42.42;7.35;;;21.10;86.70;;;;;;5071309;28;20049;-81
2023/12/01 10:50:48;;;;;;;35.85;8.05;;;21.00;86.30;;;;;;5042940;28;20030;-82
2023/12/01 10:53:15;;;;;;;38.25;8.75;;;21.00;86.30;;;;;;5033633;28;20036;-79
2023/12/01 10:55:48;;;;;;;43.78;9.05;;;21.00;86.30;;;;;;5033793;28;20041;-80
2023/12/01 10:58:23;;;;;;;35.97;7.57;;;21.00;86.40;;;;;;5032534;28;20084;-80
2023/12/01 11:00:50;;;;;;;37.08;8.50;;;21.00;86.40;;;;;;5039231;28;20068;-82
2023/12/01 11:03:25;;;;;;;33.65;7.35;;;20.90;86.40;;;;;;5053049;28;20487;-82
2023/12/01 11:06:01;;;;;;;37.22;8.93;;;20.90;86.40;;;;;;5052416;28;20127;-82
2023/12/01 11:08:42;;;;;;;43.10;8.80;;;21.00;86.80;;;;;;5053001;28;20037;-79
2023/12/01 11:11:19;;;;;;;35.33;7.85;;;20.90;86.80;;;;;;5052726;28;20025;-80
2023/12/01 11:14:08;;;;;;;43.45;8.43;;;20.90;86.60;;;;;;5052601;28;20063;-75
2023/12/01 11:16:34;;;;;;;42.30;8.80;;;20.90;87.00;;;;;;5052859;28;20099;-75
2023/12/01 11:19:00;;;;;;;36.75;7.95;;;20.80;86.60;;;;;;5052659;28;20029;-74
2023/12/01 11:21:28;;;;;;;34.47;8.05;;;20.80;86.80;;;;;;5052909;28;20025;-74
2023/12/01 11:23:54;;;;;;;46.25;8.75;;;20.80;86.70;;;;;;5052580;28;20029;-76
2023/12/01 11:26:23;;;;;;;35.33;7.78;;;20.80;86.80;;;;;;5052653;28;20489;-75
2023/12/01 11:28:57;;;;;;;38.65;8.60;;;20.80;86.60;;;;;;5052366;28;20033;-75
2023/12/01 11:33:59;;;;;;;40.30;8.50;;;20.80;86.40;;;;;;5052452;28;20033;-73
2023/12/01 11:36:36;;;;;;;40.95;8.38;;;20.80;86.30;;;;;;5052580;28;20021;-73
2023/12/01 11:41:41;;;;;;;40.22;7.95;;;21.00;86.50;;;;;;5052408;28;20082;-74
2023/12/01 11:44:33;;;;;;;42.47;8.63;;;21.00;86.40;;;;;;5052022;28;20021;-76
2023/12/01 11:47:01;;;;;;;35.03;8.50;;;21.00;86.70;;;;;;5051374;28;20017;-74
2023/12/01 11:49:31;;;;;;;37.25;8.10;;;21.00;86.30;;;;;;5050755;28;20447;-74
2023/12/01 11:52:03;;;;;;;41.35;8.02;;;21.00;86.10;;;;;;5050310;28;20036;-74
2023/12/01 11:54:36;;;;;;;34.45;7.88;;;21.00;85.90;;;;;;5053392;28;20025;-75
2023/12/01 11:57:07;;;;;;;34.92;8.13;;;21.10;86.00;;;;;;5039686;28;20060;-74
2023/12/01 11:59:34;;;;;;;36.40;7.78;;;21.20;85.50;;;;;;5034066;28;20025;-73
2023/12/01 12:02:00;;;;;;;52.75;8.85;;;21.20;85.20;;;;;;5052122;28;20104;-72
2023/12/01 12:04:25;;;;;;;39.55;9.35;;;21.30;85.20;;;;;;5051899;28;20100;-77
2023/12/01 12:06:52;;;;;;;39.08;9.45;;;21.30;85.00;;;;;;5051994;28;20017;-76
2023/12/01 12:09:17;;;;;;;42.47;8.25;;;21.30;85.00;;;;;;5051874;28;20116;-76
2023/12/01 12:11:55;;;;;;;43.47;8.50;;;21.30;85.20;;;;;;5055779;28;20092;-74
2023/12/01 12:14:29;;;;;;;36.42;8.38;;;21.40;85.20;;;;;;5056414;28;20021;-82
2023/12/01 12:16:55;;;;;;;37.50;8.98;;;21.40;85.20;;;;;;5056899;28;20029;-83
2023/12/01 12:19:21;;;;;;;32.90;7.55;;;21.60;85.10;;;;;;5059885;28;20033;-82
2023/12/01 12:21:48;;;;;;;37.95;8.05;;;21.70;85.10;;;;;;5058141;28;20184;-78
2023/12/01 12:24:15;;;;;;;30.50;7.97;;;21.70;84.70;;;;;;5063248;28;20024;-82
2023/12/01 12:26:42;;;;;;;36.83;8.40;;;21.80;84.80;;;;;;5059633;28;20028;-86
2023/12/01 12:29:08;;;;;;;28.90;7.40;;;21.90;85.10;;;;;;5056099;28;20040;-77
2023/12/01 12:31:36;;;;;;;31.88;7.78;;;21.90;84.50;;;;;;5055977;28;20021;-77
2023/12/01 12:34:07;;;;;;;33.35;7.45;;;22.00;84.50;;;;;;5056196;28;20059;-77
2023/12/01 12:36:35;;;;;;;32.28;7.75;;;22.10;84.10;;;;;;5056208;28;20096;-77
2023/12/01 12:39:06;;;;;;;37.03;8.35;;;22.10;83.70;;;;;;5055631;28;20021;-78
2023/12/01 12:41:36;;;;;;;26.65;7.32;;;22.10;83.40;;;;;;5055506;28;20491;-77
2023/12/01 12:44:04;;;;;;;35.53;8.23;;;22.10;83.60;;;;;;5055646;28;20056;-78